sensor_id;sensor_type;location;lat;lon;timestamp;P1;durP1;ratioP1;P2;durP2;ratioP2
29380;SDS011;16364;52.490;13.326;2022-07-23T00:00:57;6.27;;;5.60;;
29380;SDS011;16364;52.490;13.326;2022-07-23T00:03:22;5.97;;;5.30;;
29380;SDS011;16364;52.490;13.326;2022-07-23T00:05:47;8.43;;;5.80;;
29380;SDS011;16364;52.490;13.326;2022-07-23T00:08:12;5.63;;;5.23;;
29380;SDS011;16364;52.490;13.326;2022-07-23T00:10:37;5.87;;;5.27;;
29380;SDS011;16364;52.490;13.326;2022-07-23T00:13:03;6.70;;;6.20;;
29380;SDS011;16364;52.490;13.326;2022-07-23T00:15:28;6.33;;;5.77;;
29380;SDS011;16364;52.490;13.326;2022-07-23T00:17:53;8.40;;;6.17;;
29380;SDS011;16364;52.490;13.326;2022-07-23T00:20:18;6.37;;;4.63;;
29380;SDS011;16364;52.490;13.326;2022-07-23T00:22:51;5.40;;;4.20;;
29380;SDS011;16364;52.490;13.326;2022-07-23T00:25:16;6.50;;;4.97;;
29380;SDS011;16364;52.490;13.326;2022-07-23T00:27:42;5.87;;;5.30;;
29380;SDS011;16364;52.490;13.326;2022-07-23T00:30:07;5.37;;;4.70;;
29380;SDS011;16364;52.490;13.326;2022-07-23T00:32:32;5.60;;;5.10;;
29380;SDS011;16364;52.490;13.326;2022-07-23T00:35:09;4.90;;;4.33;;
29380;SDS011;16364;52.490;13.326;2022-07-23T00:37:34;5.87;;;5.37;;
29380;SDS011;16364;52.490;13.326;2022-07-23T00:40:02;6.27;;;5.63;;
29380;SDS011;16364;52.490;13.326;2022-07-23T00:42:27;5.77;;;5.17;;
29380;SDS011;16364;52.490;13.326;2022-07-23T00:44:52;5.20;;;4.80;;
29380;SDS011;16364;52.490;13.326;2022-07-23T00:47:17;6.43;;;5.50;;
29380;SDS011;16364;52.490;13.326;2022-07-23T00:49:43;5.43;;;4.93;;
29380;SDS011;16364;52.490;13.326;2022-07-23T00:52:08;5.93;;;5.23;;
29380;SDS011;16364;52.490;13.326;2022-07-23T00:54:33;5.50;;;5.00;;
29380;SDS011;16364;52.490;13.326;2022-07-23T00:56:58;11.30;;;5.33;;
29380;SDS011;16364;52.490;13.326;2022-07-23T00:59:23;5.60;;;5.10;;
29380;SDS011;16364;52.490;13.326;2022-07-23T01:01:49;6.23;;;5.63;;
29380;SDS011;16364;52.490;13.326;2022-07-23T01:04:14;6.30;;;5.70;;
29380;SDS011;16364;52.490;13.326;2022-07-23T01:06:40;5.63;;;5.23;;
29380;SDS011;16364;52.490;13.326;2022-07-23T01:09:05;5.67;;;5.17;;
29380;SDS011;16364;52.490;13.326;2022-07-23T01:11:32;5.50;;;5.00;;
29380;SDS011;16364;52.490;13.326;2022-07-23T01:13:57;9.03;;;6.00;;
29380;SDS011;16364;52.490;13.326;2022-07-23T01:16:23;5.13;;;4.80;;
29380;SDS011;16364;52.490;13.326;2022-07-23T01:18:48;9.53;;;5.60;;
29380;SDS011;16364;52.490;13.326;2022-07-23T01:21:13;5.60;;;5.17;;
29380;SDS011;16364;52.490;13.326;2022-07-23T01:23:39;5.90;;;5.40;;
29380;SDS011;16364;52.490;13.326;2022-07-23T01:26:04;6.07;;;5.57;;
29380;SDS011;16364;52.490;13.326;2022-07-23T01:28:30;7.47;;;5.80;;
29380;SDS011;16364;52.490;13.326;2022-07-23T01:30:55;5.80;;;5.30;;
29380;SDS011;16364;52.490;13.326;2022-07-23T01:33:20;6.60;;;6.00;;
29380;SDS011;16364;52.490;13.326;2022-07-23T01:35:45;5.70;;;4.97;;
29380;SDS011;16364;52.490;13.326;2022-07-23T01:38:10;7.27;;;6.50;;
29380;SDS011;16364;52.490;13.326;2022-07-23T01:40:35;6.10;;;5.60;;
29380;SDS011;16364;52.490;13.326;2022-07-23T01:43:01;6.40;;;5.80;;
29380;SDS011;16364;52.490;13.326;2022-07-23T01:45:26;8.43;;;5.50;;
29380;SDS011;16364;52.490;13.326;2022-07-23T01:47:51;6.47;;;5.87;;
29380;SDS011;16364;52.490;13.326;2022-07-23T01:50:16;7.00;;;5.30;;
29380;SDS011;16364;52.490;13.326;2022-07-23T01:52:41;5.80;;;5.30;;
29380;SDS011;16364;52.490;13.326;2022-07-23T01:55:07;6.57;;;6.07;;
29380;SDS011;16364;52.490;13.326;2022-07-23T01:57:32;6.63;;;5.50;;
29380;SDS011;16364;52.490;13.326;2022-07-23T01:59:57;5.50;;;5.00;;
29380;SDS011;16364;52.490;13.326;2022-07-23T02:02:23;6.30;;;5.60;;
29380;SDS011;16364;52.490;13.326;2022-07-23T02:04:48;5.57;;;5.00;;
29380;SDS011;16364;52.490;13.326;2022-07-23T02:07:13;8.83;;;6.70;;
29380;SDS011;16364;52.490;13.326;2022-07-23T02:09:39;6.00;;;4.90;;
29380;SDS011;16364;52.490;13.326;2022-07-23T02:12:04;6.47;;;5.90;;
29380;SDS011;16364;52.490;13.326;2022-07-23T02:14:29;5.30;;;4.90;;
29380;SDS011;16364;52.490;13.326;2022-07-23T02:16:54;6.10;;;5.50;;
29380;SDS011;16364;52.490;13.326;2022-07-23T02:19:19;7.20;;;5.37;;
29380;SDS011;16364;52.490;13.326;2022-07-23T02:21:45;6.60;;;5.90;;
29380;SDS011;16364;52.490;13.326;2022-07-23T02:24:10;5.40;;;5.00;;
29380;SDS011;16364;52.490;13.326;2022-07-23T02:26:35;6.03;;;5.43;;
29380;SDS011;16364;52.490;13.326;2022-07-23T02:29:01;6.60;;;5.73;;
29380;SDS011;16364;52.490;13.326;2022-07-23T02:31:27;6.73;;;5.60;;
29380;SDS011;16364;52.490;13.326;2022-07-23T02:33:53;6.20;;;5.70;;
29380;SDS011;16364;52.490;13.326;2022-07-23T02:36:18;6.23;;;5.70;;
29380;SDS011;16364;52.490;13.326;2022-07-23T02:38:43;4.87;;;4.47;;
29380;SDS011;16364;52.490;13.326;2022-07-23T02:41:08;6.47;;;5.87;;
29380;SDS011;16364;52.490;13.326;2022-07-23T02:43:34;6.37;;;5.73;;
29380;SDS011;16364;52.490;13.326;2022-07-23T02:45:59;8.33;;;6.77;;
29380;SDS011;16364;52.490;13.326;2022-07-23T02:48:25;6.63;;;5.20;;
29380;SDS011;16364;52.490;13.326;2022-07-23T02:50:51;6.10;;;5.60;;
29380;SDS011;16364;52.490;13.326;2022-07-23T02:53:17;5.67;;;5.07;;
29380;SDS011;16364;52.490;13.326;2022-07-23T02:55:42;7.30;;;5.00;;
29380;SDS011;16364;52.490;13.326;2022-07-23T02:58:08;8.37;;;7.70;;
29380;SDS011;16364;52.490;13.326;2022-07-23T03:00:33;7.97;;;5.90;;
29380;SDS011;16364;52.490;13.326;2022-07-23T03:02:58;6.80;;;6.13;;
29380;SDS011;16364;52.490;13.326;2022-07-23T03:05:23;7.57;;;6.73;;
29380;SDS011;16364;52.490;13.326;2022-07-23T03:07:48;7.87;;;6.50;;
29380;SDS011;16364;52.490;13.326;2022-07-23T03:10:13;13.87;;;6.30;;
29380;SDS011;16364;52.490;13.326;2022-07-23T03:12:39;5.37;;;4.93;;
29380;SDS011;16364;52.490;13.326;2022-07-23T03:15:04;5.87;;;5.37;;
29380;SDS011;16364;52.490;13.326;2022-07-23T03:17:29;9.70;;;6.60;;
29380;SDS011;16364;52.490;13.326;2022-07-23T03:19:54;6.10;;;5.50;;
29380;SDS011;16364;52.490;13.326;2022-07-23T03:22:20;10.10;;;6.23;;
29380;SDS011;16364;52.490;13.326;2022-07-23T03:24:45;9.33;;;5.70;;
29380;SDS011;16364;52.490;13.326;2022-07-23T03:27:20;7.50;;;5.10;;
29380;SDS011;16364;52.490;13.326;2022-07-23T03:29:45;5.40;;;5.00;;
29380;SDS011;16364;52.490;13.326;2022-07-23T03:32:10;6.40;;;5.60;;
29380;SDS011;16364;52.490;13.326;2022-07-23T03:34:35;5.10;;;4.63;;
29380;SDS011;16364;52.490;13.326;2022-07-23T03:37:01;5.10;;;4.70;;
29380;SDS011;16364;52.490;13.326;2022-07-23T03:39:26;6.27;;;4.37;;
29380;SDS011;16364;52.490;13.326;2022-07-23T03:41:51;5.70;;;4.23;;
29380;SDS011;16364;52.490;13.326;2022-07-23T03:44:16;6.87;;;4.60;;
29380;SDS011;16364;52.490;13.326;2022-07-23T03:46:42;4.60;;;3.60;;
29380;SDS011;16364;52.490;13.326;2022-07-23T03:49:07;8.70;;;3.40;;
29380;SDS011;16364;52.490;13.326;2022-07-23T03:51:32;3.50;;;3.17;;
29380;SDS011;16364;52.490;13.326;2022-07-23T03:53:57;4.73;;;3.37;;
29380;SDS011;16364;52.490;13.326;2022-07-23T03:56:22;6.93;;;3.87;;
29380;SDS011;16364;52.490;13.326;2022-07-23T03:58:48;4.67;;;2.40;;
29380;SDS011;16364;52.490;13.326;2022-07-23T04:01:13;2.43;;;2.23;;
29380;SDS011;16364;52.490;13.326;2022-07-23T04:03:38;3.53;;;2.83;;
29380;SDS011;16364;52.490;13.326;2022-07-23T04:06:03;4.80;;;2.67;;
29380;SDS011;16364;52.490;13.326;2022-07-23T04:08:29;5.13;;;2.03;;
29380;SDS011;16364;52.490;13.326;2022-07-23T04:10:54;2.33;;;2.10;;
29380;SDS011;16364;52.490;13.326;2022-07-23T04:13:19;2.40;;;2.20;;
29380;SDS011;16364;52.490;13.326;2022-07-23T04:15:45;4.20;;;1.97;;
29380;SDS011;16364;52.490;13.326;2022-07-23T04:18:10;2.50;;;1.80;;
29380;SDS011;16364;52.490;13.326;2022-07-23T04:20:35;2.70;;;2.30;;
29380;SDS011;16364;52.490;13.326;2022-07-23T04:23:00;2.53;;;2.17;;
29380;SDS011;16364;52.490;13.326;2022-07-23T04:25:26;6.90;;;2.13;;
29380;SDS011;16364;52.490;13.326;2022-07-23T04:27:51;3.03;;;1.80;;
29380;SDS011;16364;52.490;13.326;2022-07-23T04:30:16;2.80;;;2.03;;
29380;SDS011;16364;52.490;13.326;2022-07-23T04:32:41;9.07;;;2.20;;
29380;SDS011;16364;52.490;13.326;2022-07-23T04:35:06;9.33;;;2.60;;
29380;SDS011;16364;52.490;13.326;2022-07-23T04:37:32;5.53;;;2.53;;
29380;SDS011;16364;52.490;13.326;2022-07-23T04:39:57;8.57;;;3.30;;
29380;SDS011;16364;52.490;13.326;2022-07-23T04:42:22;4.87;;;2.30;;
29380;SDS011;16364;52.490;13.326;2022-07-23T04:44:47;6.47;;;2.30;;
29380;SDS011;16364;52.490;13.326;2022-07-23T04:47:12;2.53;;;1.80;;
29380;SDS011;16364;52.490;13.326;2022-07-23T04:49:37;2.60;;;2.40;;
29380;SDS011;16364;52.490;13.326;2022-07-23T04:52:03;4.50;;;3.63;;
29380;SDS011;16364;52.490;13.326;2022-07-23T04:54:28;3.67;;;3.30;;
29380;SDS011;16364;52.490;13.326;2022-07-23T04:56:54;5.77;;;2.87;;
29380;SDS011;16364;52.490;13.326;2022-07-23T04:59:19;4.13;;;2.30;;
29380;SDS011;16364;52.490;13.326;2022-07-23T05:01:44;4.60;;;2.10;;
29380;SDS011;16364;52.490;13.326;2022-07-23T05:04:09;2.50;;;2.17;;
29380;SDS011;16364;52.490;13.326;2022-07-23T05:06:34;5.83;;;2.60;;
29380;SDS011;16364;52.490;13.326;2022-07-23T05:08:59;6.00;;;2.87;;
29380;SDS011;16364;52.490;13.326;2022-07-23T05:11:25;5.77;;;3.60;;
29380;SDS011;16364;52.490;13.326;2022-07-23T05:13:50;4.10;;;2.97;;
29380;SDS011;16364;52.490;13.326;2022-07-23T05:16:16;3.43;;;2.27;;
29380;SDS011;16364;52.490;13.326;2022-07-23T05:18:41;6.33;;;2.40;;
29380;SDS011;16364;52.490;13.326;2022-07-23T05:21:06;3.90;;;3.50;;
29380;SDS011;16364;52.490;13.326;2022-07-23T05:23:32;6.50;;;2.80;;
29380;SDS011;16364;52.490;13.326;2022-07-23T05:25:57;5.57;;;4.40;;
29380;SDS011;16364;52.490;13.326;2022-07-23T05:28:22;4.03;;;2.33;;
29380;SDS011;16364;52.490;13.326;2022-07-23T05:30:47;3.40;;;2.40;;
29380;SDS011;16364;52.490;13.326;2022-07-23T05:33:12;7.10;;;2.47;;
29380;SDS011;16364;52.490;13.326;2022-07-23T05:35:38;3.73;;;2.67;;
29380;SDS011;16364;52.490;13.326;2022-07-23T05:38:03;3.27;;;2.37;;
29380;SDS011;16364;52.490;13.326;2022-07-23T05:40:28;5.97;;;2.60;;
29380;SDS011;16364;52.490;13.326;2022-07-23T05:42:54;2.40;;;2.20;;
29380;SDS011;16364;52.490;13.326;2022-07-23T05:45:19;2.63;;;2.10;;
29380;SDS011;16364;52.490;13.326;2022-07-23T05:47:45;7.77;;;2.83;;
29380;SDS011;16364;52.490;13.326;2022-07-23T05:50:11;3.47;;;2.20;;
29380;SDS011;16364;52.490;13.326;2022-07-23T05:52:36;3.13;;;2.20;;
29380;SDS011;16364;52.490;13.326;2022-07-23T05:55:02;3.33;;;2.60;;
29380;SDS011;16364;52.490;13.326;2022-07-23T05:57:27;3.80;;;2.67;;
29380;SDS011;16364;52.490;13.326;2022-07-23T05:59:52;3.37;;;2.87;;
29380;SDS011;16364;52.490;13.326;2022-07-23T06:02:17;3.07;;;2.07;;
29380;SDS011;16364;52.490;13.326;2022-07-23T06:04:42;3.57;;;2.00;;
29380;SDS011;16364;52.490;13.326;2022-07-23T06:07:08;2.20;;;2.00;;
29380;SDS011;16364;52.490;13.326;2022-07-23T06:09:34;3.23;;;2.20;;
29380;SDS011;16364;52.490;13.326;2022-07-23T06:11:59;4.30;;;2.50;;
29380;SDS011;16364;52.490;13.326;2022-07-23T06:14:24;7.80;;;2.77;;
29380;SDS011;16364;52.490;13.326;2022-07-23T06:16:49;4.90;;;2.57;;
29380;SDS011;16364;52.490;13.326;2022-07-23T06:19:14;2.60;;;2.33;;
29380;SDS011;16364;52.490;13.326;2022-07-23T06:21:40;2.47;;;2.27;;
29380;SDS011;16364;52.490;13.326;2022-07-23T06:24:05;3.50;;;2.47;;
29380;SDS011;16364;52.490;13.326;2022-07-23T06:26:30;4.93;;;3.00;;
29380;SDS011;16364;52.490;13.326;2022-07-23T06:28:55;3.10;;;2.80;;
29380;SDS011;16364;52.490;13.326;2022-07-23T06:31:21;5.47;;;2.80;;
29380;SDS011;16364;52.490;13.326;2022-07-23T06:33:46;6.20;;;3.30;;
29380;SDS011;16364;52.490;13.326;2022-07-23T06:36:11;6.70;;;2.87;;
29380;SDS011;16364;52.490;13.326;2022-07-23T06:38:36;5.40;;;3.00;;
29380;SDS011;16364;52.490;13.326;2022-07-23T06:41:01;3.27;;;2.73;;
29380;SDS011;16364;52.490;13.326;2022-07-23T06:43:26;3.07;;;2.83;;
29380;SDS011;16364;52.490;13.326;2022-07-23T06:45:52;3.63;;;3.30;;
29380;SDS011;16364;52.490;13.326;2022-07-23T06:48:17;3.40;;;2.43;;
29380;SDS011;16364;52.490;13.326;2022-07-23T06:50:42;2.57;;;2.37;;
29380;SDS011;16364;52.490;13.326;2022-07-23T06:53:07;3.40;;;3.00;;
29380;SDS011;16364;52.490;13.326;2022-07-23T06:55:32;3.67;;;3.37;;
29380;SDS011;16364;52.490;13.326;2022-07-23T06:58:00;3.67;;;3.37;;
29380;SDS011;16364;52.490;13.326;2022-07-23T07:00:25;3.73;;;2.27;;
29380;SDS011;16364;52.490;13.326;2022-07-23T07:02:53;5.77;;;3.53;;
29380;SDS011;16364;52.490;13.326;2022-07-23T07:05:18;4.63;;;4.23;;
29380;SDS011;16364;52.490;13.326;2022-07-23T07:07:43;7.10;;;4.70;;
29380;SDS011;16364;52.490;13.326;2022-07-23T07:10:08;5.23;;;4.07;;
29380;SDS011;16364;52.490;13.326;2022-07-23T07:12:34;4.47;;;4.07;;
29380;SDS011;16364;52.490;13.326;2022-07-23T07:14:59;8.00;;;3.87;;
29380;SDS011;16364;52.490;13.326;2022-07-23T07:17:24;4.87;;;3.90;;
29380;SDS011;16364;52.490;13.326;2022-07-23T07:19:49;4.33;;;3.90;;
29380;SDS011;16364;52.490;13.326;2022-07-23T07:22:14;3.80;;;3.40;;
29380;SDS011;16364;52.490;13.326;2022-07-23T07:24:40;4.27;;;3.00;;
29380;SDS011;16364;52.490;13.326;2022-07-23T07:27:05;5.27;;;4.73;;
29380;SDS011;16364;52.490;13.326;2022-07-23T07:29:30;3.73;;;3.43;;
29380;SDS011;16364;52.490;13.326;2022-07-23T07:31:55;4.63;;;3.07;;
29380;SDS011;16364;52.490;13.326;2022-07-23T07:34:21;4.73;;;3.77;;
29380;SDS011;16364;52.490;13.326;2022-07-23T07:36:46;3.33;;;2.93;;
29380;SDS011;16364;52.490;13.326;2022-07-23T07:39:11;6.43;;;4.07;;
29380;SDS011;16364;52.490;13.326;2022-07-23T07:41:36;3.50;;;3.20;;
29380;SDS011;16364;52.490;13.326;2022-07-23T07:44:01;5.20;;;4.10;;
29380;SDS011;16364;52.490;13.326;2022-07-23T07:46:27;4.03;;;3.50;;
29380;SDS011;16364;52.490;13.326;2022-07-23T07:48:52;4.97;;;3.73;;
29380;SDS011;16364;52.490;13.326;2022-07-23T07:51:18;3.57;;;2.90;;
29380;SDS011;16364;52.490;13.326;2022-07-23T07:53:43;4.60;;;3.67;;
29380;SDS011;16364;52.490;13.326;2022-07-23T07:56:08;6.57;;;4.07;;
29380;SDS011;16364;52.490;13.326;2022-07-23T07:58:33;6.37;;;3.83;;
29380;SDS011;16364;52.490;13.326;2022-07-23T08:00:58;5.53;;;4.43;;
29380;SDS011;16364;52.490;13.326;2022-07-23T08:03:25;4.33;;;3.93;;
29380;SDS011;16364;52.490;13.326;2022-07-23T08:05:50;6.27;;;3.83;;
29380;SDS011;16364;52.490;13.326;2022-07-23T08:08:15;5.33;;;4.13;;
29380;SDS011;16364;52.490;13.326;2022-07-23T08:10:41;5.27;;;3.93;;
29380;SDS011;16364;52.490;13.326;2022-07-23T08:13:06;5.17;;;4.67;;
29380;SDS011;16364;52.490;13.326;2022-07-23T08:15:31;3.83;;;3.53;;
29380;SDS011;16364;52.490;13.326;2022-07-23T08:17:56;5.03;;;3.83;;
29380;SDS011;16364;52.490;13.326;2022-07-23T08:20:22;9.20;;;3.73;;
29380;SDS011;16364;52.490;13.326;2022-07-23T08:25:13;3.53;;;2.73;;
29380;SDS011;16364;52.490;13.326;2022-07-23T08:27:39;5.37;;;3.40;;
29380;SDS011;16364;52.490;13.326;2022-07-23T08:30:04;4.63;;;3.07;;
29380;SDS011;16364;52.490;13.326;2022-07-23T08:32:30;3.10;;;2.80;;
29380;SDS011;16364;52.490;13.326;2022-07-23T08:34:55;6.93;;;2.90;;
29380;SDS011;16364;52.490;13.326;2022-07-23T08:37:20;4.43;;;2.90;;
29380;SDS011;16364;52.490;13.326;2022-07-23T08:39:45;5.80;;;2.50;;
29380;SDS011;16364;52.490;13.326;2022-07-23T08:42:11;7.37;;;2.97;;
29380;SDS011;16364;52.490;13.326;2022-07-23T08:44:36;4.73;;;2.80;;
29380;SDS011;16364;52.490;13.326;2022-07-23T08:47:04;3.93;;;2.47;;
29380;SDS011;16364;52.490;13.326;2022-07-23T08:49:29;4.60;;;2.33;;
29380;SDS011;16364;52.490;13.326;2022-07-23T08:51:54;4.80;;;3.20;;
29380;SDS011;16364;52.490;13.326;2022-07-23T08:54:20;5.30;;;2.60;;
29380;SDS011;16364;52.490;13.326;2022-07-23T08:56:46;6.43;;;2.30;;
29380;SDS011;16364;52.490;13.326;2022-07-23T08:59:11;4.03;;;2.43;;
29380;SDS011;16364;52.490;13.326;2022-07-23T09:01:38;3.57;;;2.67;;
29380;SDS011;16364;52.490;13.326;2022-07-23T09:04:04;7.13;;;3.27;;
29380;SDS011;16364;52.490;13.326;2022-07-23T09:06:29;4.87;;;3.70;;
29380;SDS011;16364;52.490;13.326;2022-07-23T09:08:54;5.27;;;2.63;;
29380;SDS011;16364;52.490;13.326;2022-07-23T09:11:19;6.53;;;3.10;;
29380;SDS011;16364;52.490;13.326;2022-07-23T09:13:48;4.40;;;3.10;;
29380;SDS011;16364;52.490;13.326;2022-07-23T09:16:30;3.60;;;3.30;;
29380;SDS011;16364;52.490;13.326;2022-07-23T09:18:56;3.90;;;2.50;;
29380;SDS011;16364;52.490;13.326;2022-07-23T09:21:34;3.90;;;2.00;;
29380;SDS011;16364;52.490;13.326;2022-07-23T09:31:31;7.50;;;3.70;;
29380;SDS011;16364;52.490;13.326;2022-07-23T09:34:07;3.33;;;3.03;;
29380;SDS011;16364;52.490;13.326;2022-07-23T09:36:33;7.70;;;3.00;;
29380;SDS011;16364;52.490;13.326;2022-07-23T09:38:58;6.77;;;3.20;;
29380;SDS011;16364;52.490;13.326;2022-07-23T09:41:23;3.30;;;3.00;;
29380;SDS011;16364;52.490;13.326;2022-07-23T09:43:54;2.93;;;2.70;;
29380;SDS011;16364;52.490;13.326;2022-07-23T09:46:23;5.93;;;3.87;;
29380;SDS011;16364;52.490;13.326;2022-07-23T09:48:49;3.50;;;2.33;;
29380;SDS011;16364;52.490;13.326;2022-07-23T09:51:16;4.30;;;3.37;;
29380;SDS011;16364;52.490;13.326;2022-07-23T09:54:20;5.53;;;3.77;;
29380;SDS011;16364;52.490;13.326;2022-07-23T09:56:47;6.37;;;3.87;;
29380;SDS011;16364;52.490;13.326;2022-07-23T09:59:12;4.27;;;3.87;;
29380;SDS011;16364;52.490;13.326;2022-07-23T10:01:40;4.63;;;3.40;;
29380;SDS011;16364;52.490;13.326;2022-07-23T10:04:05;5.00;;;3.40;;
29380;SDS011;16364;52.490;13.326;2022-07-23T10:06:31;5.03;;;3.63;;
29380;SDS011;16364;52.490;13.326;2022-07-23T10:08:56;3.03;;;2.83;;
29380;SDS011;16364;52.490;13.326;2022-07-23T10:11:23;5.87;;;3.50;;
29380;SDS011;16364;52.490;13.326;2022-07-23T10:13:48;4.40;;;3.20;;
29380;SDS011;16364;52.490;13.326;2022-07-23T10:16:14;3.17;;;2.90;;
29380;SDS011;16364;52.490;13.326;2022-07-23T10:18:39;3.47;;;3.20;;
29380;SDS011;16364;52.490;13.326;2022-07-23T10:21:05;4.97;;;3.20;;
29380;SDS011;16364;52.490;13.326;2022-07-23T10:23:36;3.30;;;3.00;;
29380;SDS011;16364;52.490;13.326;2022-07-23T10:26:12;5.40;;;3.87;;
29380;SDS011;16364;52.490;13.326;2022-07-23T10:31:29;4.20;;;3.53;;
29380;SDS011;16364;52.490;13.326;2022-07-23T10:34:01;6.87;;;3.67;;
29380;SDS011;16364;52.490;13.326;2022-07-23T10:36:29;5.07;;;3.23;;
29380;SDS011;16364;52.490;13.326;2022-07-23T10:39:14;4.07;;;3.20;;
29380;SDS011;16364;52.490;13.326;2022-07-23T10:41:40;3.80;;;3.43;;
29380;SDS011;16364;52.490;13.326;2022-07-23T10:44:13;4.60;;;2.77;;
29380;SDS011;16364;52.490;13.326;2022-07-23T10:46:54;5.70;;;2.97;;
29380;SDS011;16364;52.490;13.326;2022-07-23T10:49:27;4.00;;;2.70;;
29380;SDS011;16364;52.490;13.326;2022-07-23T10:54:37;3.50;;;3.17;;
29380;SDS011;16364;52.490;13.326;2022-07-23T10:57:05;3.77;;;3.00;;
29380;SDS011;16364;52.490;13.326;2022-07-23T10:59:32;3.83;;;3.43;;
29380;SDS011;16364;52.490;13.326;2022-07-23T11:02:20;3.57;;;3.27;;
29380;SDS011;16364;52.490;13.326;2022-07-23T11:04:49;3.43;;;3.13;;
29380;SDS011;16364;52.490;13.326;2022-07-23T11:07:15;5.87;;;3.40;;
29380;SDS011;16364;52.490;13.326;2022-07-23T11:09:41;3.20;;;3.00;;
29380;SDS011;16364;52.490;13.326;2022-07-23T11:17:22;3.00;;;2.80;;
29380;SDS011;16364;52.490;13.326;2022-07-23T11:25:00;5.07;;;3.10;;
29380;SDS011;16364;52.490;13.326;2022-07-23T11:27:36;6.93;;;3.10;;
29380;SDS011;16364;52.490;13.326;2022-07-23T11:30:01;6.97;;;4.00;;
29380;SDS011;16364;52.490;13.326;2022-07-23T11:32:28;5.70;;;3.00;;
29380;SDS011;16364;52.490;13.326;2022-07-23T11:34:54;5.60;;;3.10;;
29380;SDS011;16364;52.490;13.326;2022-07-23T11:37:38;3.07;;;2.37;;
29380;SDS011;16364;52.490;13.326;2022-07-23T11:40:05;4.00;;;2.70;;
29380;SDS011;16364;52.490;13.326;2022-07-23T11:42:31;3.00;;;2.53;;
29380;SDS011;16364;52.490;13.326;2022-07-23T11:44:57;4.07;;;2.60;;
29380;SDS011;16364;52.490;13.326;2022-07-23T11:47:23;5.70;;;2.60;;
29380;SDS011;16364;52.490;13.326;2022-07-23T11:50:06;3.47;;;2.60;;
29380;SDS011;16364;52.490;13.326;2022-07-23T11:52:32;7.23;;;2.97;;
29380;SDS011;16364;52.490;13.326;2022-07-23T11:54:58;5.30;;;2.67;;
29380;SDS011;16364;52.490;13.326;2022-07-23T11:57:24;4.77;;;3.20;;
29380;SDS011;16364;52.490;13.326;2022-07-23T11:59:51;4.50;;;3.50;;
29380;SDS011;16364;52.490;13.326;2022-07-23T12:02:19;5.47;;;2.90;;
29380;SDS011;16364;52.490;13.326;2022-07-23T12:04:45;3.93;;;2.83;;
29380;SDS011;16364;52.490;13.326;2022-07-23T12:07:23;3.07;;;2.87;;
29380;SDS011;16364;52.490;13.326;2022-07-23T12:09:49;3.40;;;3.10;;
29380;SDS011;16364;52.490;13.326;2022-07-23T12:12:14;4.60;;;2.77;;
29380;SDS011;16364;52.490;13.326;2022-07-23T12:14:55;3.20;;;2.90;;
29380;SDS011;16364;52.490;13.326;2022-07-23T12:17:21;5.93;;;3.63;;
29380;SDS011;16364;52.490;13.326;2022-07-23T12:19:51;4.17;;;2.70;;
29380;SDS011;16364;52.490;13.326;2022-07-23T12:22:16;3.43;;;2.27;;
29380;SDS011;16364;52.490;13.326;2022-07-23T12:24:55;4.10;;;3.00;;
29380;SDS011;16364;52.490;13.326;2022-07-23T12:27:21;5.57;;;3.47;;
29380;SDS011;16364;52.490;13.326;2022-07-23T12:29:46;3.60;;;2.50;;
29380;SDS011;16364;52.490;13.326;2022-07-23T12:32:18;4.90;;;2.87;;
29380;SDS011;16364;52.490;13.326;2022-07-23T12:34:44;4.27;;;3.10;;
29380;SDS011;16364;52.490;13.326;2022-07-23T12:37:24;4.73;;;3.00;;
29380;SDS011;16364;52.490;13.326;2022-07-23T12:39:50;3.67;;;3.37;;
29380;SDS011;16364;52.490;13.326;2022-07-23T12:42:15;3.43;;;3.07;;
29380;SDS011;16364;52.490;13.326;2022-07-23T12:44:40;3.30;;;3.00;;
29380;SDS011;16364;52.490;13.326;2022-07-23T12:47:06;5.53;;;3.20;;
29380;SDS011;16364;52.490;13.326;2022-07-23T12:49:31;3.10;;;2.80;;
29380;SDS011;16364;52.490;13.326;2022-07-23T12:51:56;4.27;;;2.47;;
29380;SDS011;16364;52.490;13.326;2022-07-23T12:54:26;4.70;;;3.00;;
29380;SDS011;16364;52.490;13.326;2022-07-23T12:56:52;2.80;;;2.60;;
29380;SDS011;16364;52.490;13.326;2022-07-23T12:59:17;2.93;;;2.73;;
29380;SDS011;16364;52.490;13.326;2022-07-23T13:01:43;3.33;;;2.60;;
29380;SDS011;16364;52.490;13.326;2022-07-23T13:04:14;3.17;;;2.87;;
29380;SDS011;16364;52.490;13.326;2022-07-23T13:09:11;3.20;;;2.60;;
29380;SDS011;16364;52.490;13.326;2022-07-23T13:11:40;3.57;;;3.20;;
29380;SDS011;16364;52.490;13.326;2022-07-23T13:14:05;3.47;;;3.27;;
29380;SDS011;16364;52.490;13.326;2022-07-23T13:16:31;3.73;;;2.67;;
29380;SDS011;16364;52.490;13.326;2022-07-23T13:18:57;3.10;;;2.80;;
29380;SDS011;16364;52.490;13.326;2022-07-23T13:21:23;3.23;;;2.93;;
29380;SDS011;16364;52.490;13.326;2022-07-23T13:23:48;3.10;;;2.77;;
29380;SDS011;16364;52.490;13.326;2022-07-23T13:26:13;4.43;;;2.67;;
29380;SDS011;16364;52.490;13.326;2022-07-23T13:28:39;3.30;;;3.10;;
29380;SDS011;16364;52.490;13.326;2022-07-23T13:31:04;3.83;;;2.93;;
29380;SDS011;16364;52.490;13.326;2022-07-23T13:33:29;4.00;;;3.60;;
29380;SDS011;16364;52.490;13.326;2022-07-23T13:35:55;3.60;;;2.73;;
29380;SDS011;16364;52.490;13.326;2022-07-23T13:38:20;2.97;;;2.77;;
29380;SDS011;16364;52.490;13.326;2022-07-23T13:40:46;3.27;;;3.07;;
29380;SDS011;16364;52.490;13.326;2022-07-23T13:43:13;3.30;;;2.93;;
29380;SDS011;16364;52.490;13.326;2022-07-23T13:45:39;3.47;;;3.17;;
29380;SDS011;16364;52.490;13.326;2022-07-23T13:48:05;4.60;;;2.60;;
29380;SDS011;16364;52.490;13.326;2022-07-23T13:50:30;3.40;;;2.13;;
29380;SDS011;16364;52.490;13.326;2022-07-23T13:52:56;3.37;;;2.80;;
29380;SDS011;16364;52.490;13.326;2022-07-23T13:55:21;2.30;;;2.10;;
29380;SDS011;16364;52.490;13.326;2022-07-23T13:57:46;4.30;;;2.30;;
29380;SDS011;16364;52.490;13.326;2022-07-23T14:00:12;2.47;;;2.00;;
29380;SDS011;16364;52.490;13.326;2022-07-23T14:02:38;3.47;;;2.27;;
29380;SDS011;16364;52.490;13.326;2022-07-23T14:05:04;3.20;;;2.13;;
29380;SDS011;16364;52.490;13.326;2022-07-23T14:07:29;5.03;;;2.23;;
29380;SDS011;16364;52.490;13.326;2022-07-23T14:09:54;3.63;;;2.63;;
29380;SDS011;16364;52.490;13.326;2022-07-23T14:12:20;2.23;;;2.03;;
29380;SDS011;16364;52.490;13.326;2022-07-23T14:14:45;3.27;;;2.10;;
29380;SDS011;16364;52.490;13.326;2022-07-23T14:17:10;3.03;;;2.33;;
29380;SDS011;16364;52.490;13.326;2022-07-23T14:19:35;3.90;;;2.00;;
29380;SDS011;16364;52.490;13.326;2022-07-23T14:22:00;3.27;;;2.07;;
29380;SDS011;16364;52.490;13.326;2022-07-23T14:24:26;2.90;;;2.40;;
29380;SDS011;16364;52.490;13.326;2022-07-23T14:26:51;2.60;;;1.90;;
29380;SDS011;16364;52.490;13.326;2022-07-23T14:29:16;2.10;;;1.83;;
29380;SDS011;16364;52.490;13.326;2022-07-23T14:31:41;2.33;;;1.97;;
29380;SDS011;16364;52.490;13.326;2022-07-23T14:34:07;1.87;;;1.70;;
29380;SDS011;16364;52.490;13.326;2022-07-23T14:36:32;2.50;;;1.83;;
29380;SDS011;16364;52.490;13.326;2022-07-23T14:38:57;2.73;;;2.10;;
29380;SDS011;16364;52.490;13.326;2022-07-23T14:41:22;3.90;;;1.80;;
29380;SDS011;16364;52.490;13.326;2022-07-23T14:43:47;3.87;;;1.70;;
29380;SDS011;16364;52.490;13.326;2022-07-23T14:46:13;2.77;;;1.73;;
29380;SDS011;16364;52.490;13.326;2022-07-23T14:48:39;2.70;;;1.80;;
29380;SDS011;16364;52.490;13.326;2022-07-23T14:51:04;5.33;;;2.40;;
29380;SDS011;16364;52.490;13.326;2022-07-23T14:53:29;3.40;;;1.73;;
29380;SDS011;16364;52.490;13.326;2022-07-23T14:55:54;2.40;;;1.90;;